Time;durP1;ratioP1;P1;durP2;ratioP2;P2;SDS_P1;SDS_P2;PMS_P1;PMS_P2;Temp;Humidity;BMP_temperature;BMP_pressure;BME280_temperature;BME280_humidity;BME280_pressure;Samples;Min_cycle;Max_cycle;Signal;HPM_P1;HPM_P2
2024/01/07 00:01:00;;;;;;;10.90;2.55;;;8.80;99.90;;;;;;7384410;19;19911;-78
2024/01/07 00:03:29;;;;;;;5.95;2.75;;;8.90;99.90;;;;;;7387203;19;20366;-78
2024/01/07 00:05:58;;;;;;;15.18;2.55;;;8.90;99.90;;;;;;7404112;19;20006;-79
2024/01/07 00:08:26;;;;;;;8.35;2.40;;;8.80;99.90;;;;;;7383118;19;20011;-77
2024/01/07 00:10:55;;;;;;;6.22;2.20;;;8.70;99.90;;;;;;7384307;19;20350;-78
2024/01/07 00:13:26;;;;;;;9.85;2.55;;;8.70;99.90;;;;;;7382311;19;20014;-78
2024/01/07 00:15:56;;;;;;;6.43;2.30;;;8.80;99.90;;;;;;7383115;19;20011;-78
2024/01/07 00:18:25;;;;;;;3.80;2.22;;;8.70;99.90;;;;;;7382431;19;20406;-77
2024/01/07 00:20:53;;;;;;;9.45;2.33;;;8.80;99.90;;;;;;7405349;19;20018;-78
2024/01/07 00:23:23;;;;;;;7.15;2.40;;;8.90;99.90;;;;;;7385066;19;20070;-78
2024/01/07 00:25:51;;;;;;;7.28;2.55;;;9.00;99.90;;;;;;7385572;19;20020;-78
2024/01/07 00:28:20;;;;;;;8.18;2.22;;;9.00;99.90;;;;;;7384499;19;20002;-78
2024/01/07 00:30:51;;;;;;;5.65;2.10;;;8.80;99.90;;;;;;7386173;19;20009;-77
2024/01/07 00:33:20;;;;;;;6.43;2.05;;;8.70;99.90;;;;;;7411753;19;20341;-77
2024/01/07 00:35:49;;;;;;;9.23;2.03;;;8.90;99.90;;;;;;7383213;19;20026;-77
2024/01/07 00:38:17;;;;;;;5.60;2.30;;;8.80;99.90;;;;;;7382533;19;20013;-78
2024/01/07 00:40:46;;;;;;;8.90;2.03;;;8.90;99.90;;;;;;7384292;19;20069;-79
2024/01/07 00:43:15;;;;;;;6.50;2.15;;;8.80;99.90;;;;;;7382410;19;20070;-79
2024/01/07 00:45:43;;;;;;;8.02;2.70;;;8.70;99.90;;;;;;7384296;19;20371;-78
2024/01/07 00:48:16;;;;;;;7.25;2.25;;;8.60;99.90;;;;;;7401626;19;20031;-76
2024/01/07 00:50:45;;;;;;;19.83;2.47;;;8.60;99.90;;;;;;7385087;19;20015;-78
2024/01/07 00:53:14;;;;;;;6.45;2.10;;;8.50;99.90;;;;;;7382212;19;20018;-78
2024/01/07 00:55:42;;;;;;;7.53;1.80;;;8.50;99.90;;;;;;7382323;19;19998;-78
2024/01/07 00:58:11;;;;;;;5.88;2.20;;;8.60;99.90;;;;;;7382775;19;20011;-78
2024/01/07 01:00:40;;;;;;;5.53;1.77;;;8.50;99.90;;;;;;7383857;19;20480;-78
2024/01/07 01:03:08;;;;;;;12.10;2.15;;;8.70;99.90;;;;;;7408216;19;20003;-78
2024/01/07 01:05:40;;;;;;;4.97;1.90;;;8.80;99.90;;;;;;7381808;19;20007;-79
2024/01/07 01:08:09;;;;;;;5.38;1.98;;;8.50;99.90;;;;;;7385110;19;20002;-79
2024/01/07 01:10:37;;;;;;;7.10;1.98;;;8.70;99.90;;;;;;7385915;19;20010;-78
2024/01/07 01:13:07;;;;;;;8.50;2.00;;;8.70;99.90;;;;;;7384125;19;20007;-79
2024/01/07 01:15:35;;;;;;;5.88;1.95;;;8.60;99.90;;;;;;7389162;19;20013;-78
2024/01/07 01:18:04;;;;;;;12.75;1.90;;;8.70;99.90;;;;;;7422592;19;20015;-77
2024/01/07 01:20:33;;;;;;;12.45;1.90;;;8.70;99.90;;;;;;7406402;19;20010;-77
2024/01/07 01:23:04;;;;;;;8.65;1.80;;;8.60;99.90;;;;;;7400368;19;20003;-77
2024/01/07 01:25:33;;;;;;;10.70;1.70;;;8.60;99.90;;;;;;7400466;19;20007;-77
2024/01/07 01:28:01;;;;;;;9.95;1.90;;;8.30;99.90;;;;;;7385999;19;20002;-77
2024/01/07 01:30:31;;;;;;;7.75;1.80;;;8.20;99.90;;;;;;7382697;19;20010;-78
2024/01/07 01:33:01;;;;;;;10.52;1.90;;;8.30;99.90;;;;;;7403813;19;20234;-78
2024/01/07 01:35:30;;;;;;;3.67;1.73;;;8.00;99.90;;;;;;7382337;19;20010;-77
2024/01/07 01:37:59;;;;;;;7.15;2.38;;;8.10;99.90;;;;;;7384427;19;20541;-78
2024/01/07 01:40:31;;;;;;;5.85;1.70;;;8.40;99.90;;;;;;7383220;19;20003;-78
2024/01/07 01:42:59;;;;;;;8.20;2.05;;;8.40;99.90;;;;;;7387743;19;20643;-78
2024/01/07 01:45:28;;;;;;;3.53;1.98;;;8.40;99.90;;;;;;7408012;19;20022;-78
2024/01/07 01:47:57;;;;;;;4.80;1.95;;;8.40;99.90;;;;;;7387871;19;20003;-78
2024/01/07 01:50:27;;;;;;;7.70;2.20;;;8.40;99.90;;;;;;7386087;19;20003;-77
2024/01/07 01:52:56;;;;;;;6.18;2.03;;;8.40;99.90;;;;;;7380905;19;20017;-77
2024/01/07 01:55:26;;;;;;;7.60;1.60;;;8.50;99.90;;;;;;7379894;19;20019;-77
2024/01/07 01:57:59;;;;;;;5.60;2.13;;;8.50;99.90;;;;;;7382133;19;20002;-77
2024/01/07 02:00:28;;;;;;;4.65;1.90;;;8.60;99.90;;;;;;7403211;19;20014;-77
2024/01/07 02:02:57;;;;;;;4.70;2.05;;;8.60;99.90;;;;;;7381018;19;20011;-78
2024/01/07 02:05:26;;;;;;;5.22;1.60;;;8.60;99.90;;;;;;7380924;19;20271;-77
2024/01/07 02:07:56;;;;;;;7.20;2.25;;;8.50;99.90;;;;;;7382041;19;20046;-78
2024/01/07 02:10:25;;;;;;;5.00;1.90;;;8.50;99.90;;;;;;7382456;19;20079;-78
2024/01/07 02:12:53;;;;;;;11.90;2.33;;;8.50;99.90;;;;;;7381319;19;20042;-77
2024/01/07 02:15:25;;;;;;;8.70;2.22;;;8.50;99.90;;;;;;7402619;19;20039;-77
2024/01/07 02:17:54;;;;;;;9.38;1.65;;;8.50;99.90;;;;;;7383025;19;20281;-78
2024/01/07 02:20:22;;;;;;;8.55;2.00;;;8.50;99.90;;;;;;7382045;19;20003;-77
2024/01/07 02:22:51;;;;;;;9.98;2.38;;;8.50;99.90;;;;;;7387214;19;20007;-78
2024/01/07 02:25:23;;;;;;;3.17;1.63;;;8.50;99.90;;;;;;7388595;19;20006;-77
2024/01/07 02:27:53;;;;;;;2.88;1.80;;;8.60;99.90;;;;;;7388713;19;20019;-80
2024/01/07 02:30:23;;;;;;;10.27;2.00;;;8.50;99.90;;;;;;7400031;19;20083;-78
2024/01/07 02:32:51;;;;;;;7.20;1.70;;;8.60;99.90;;;;;;7380793;19;20086;-78
2024/01/07 02:35:20;;;;;;;5.85;1.40;;;8.50;99.90;;;;;;7383387;19;20006;-79
2024/01/07 02:37:49;;;;;;;8.05;1.88;;;8.50;99.90;;;;;;7382037;19;20072;-78
2024/01/07 02:40:18;;;;;;;6.32;1.55;;;8.40;99.90;;;;;;7382179;19;20003;-78
2024/01/07 02:42:49;;;;;;;9.30;1.98;;;8.50;99.90;;;;;;7378436;19;20009;-77
2024/01/07 02:45:18;;;;;;;9.18;1.65;;;8.50;99.90;;;;;;7404100;19;20003;-77
2024/01/07 02:47:46;;;;;;;9.85;2.05;;;8.50;99.90;;;;;;7378991;19;20006;-77
2024/01/07 02:50:15;;;;;;;7.30;1.98;;;8.60;99.90;;;;;;7381197;19;20006;-77
2024/01/07 02:52:44;;;;;;;11.23;2.03;;;8.50;99.90;;;;;;7377952;19;20067;-77
2024/01/07 02:55:13;;;;;;;8.15;2.13;;;8.60;99.90;;;;;;7379751;19;20003;-78
2024/01/07 02:57:42;;;;;;;10.10;2.15;;;8.70;99.90;;;;;;7378638;19;20014;-77
2024/01/07 03:00:14;;;;;;;6.45;2.03;;;8.70;99.90;;;;;;7410163;19;20010;-78
2024/01/07 03:02:43;;;;;;;15.48;1.95;;;8.70;99.90;;;;;;7392632;19;20301;-77
2024/01/07 03:05:12;;;;;;;5.40;1.67;;;8.70;99.90;;;;;;7388221;19;20006;-77
2024/01/07 03:07:41;;;;;;;7.95;2.20;;;8.70;99.90;;;;;;7386017;19;20011;-78
2024/01/07 03:10:11;;;;;;;9.73;1.48;;;8.70;99.90;;;;;;7386591;19;19999;-78
2024/01/07 03:12:39;;;;;;;10.20;2.00;;;8.60;99.90;;;;;;7383659;19;20023;-78
2024/01/07 03:15:10;;;;;;;5.10;2.05;;;8.60;99.90;;;;;;7406764;19;20058;-78
2024/01/07 03:17:41;;;;;;;6.07;1.70;;;8.50;99.90;;;;;;7389933;19;20007;-78
2024/01/07 03:20:10;;;;;;;;;;;8.50;99.90;;;;;;7389592;19;20007;-77
2024/01/07 03:22:39;;;;;;;6.50;1.55;;;8.40;99.90;;;;;;7388066;19;20218;-77
2024/01/07 03:25:09;;;;;;;3.60;1.58;;;8.40;99.90;;;;;;7396270;19;20007;-77
2024/01/07 03:27:38;;;;;;;11.93;1.77;;;8.40;99.90;;;;;;7400864;19;20006;-77
2024/01/07 03:30:09;;;;;;;8.02;1.42;;;8.40;99.90;;;;;;7428928;19;20075;-77
2024/01/07 03:32:40;;;;;;;5.57;1.75;;;8.50;99.90;;;;;;7401914;19;20009;-77
2024/01/07 03:35:11;;;;;;;10.55;2.03;;;8.60;99.90;;;;;;7394093;19;20022;-77
2024/01/07 03:37:39;;;;;;;6.25;1.83;;;8.60;99.90;;;;;;7384944;19;20006;-78
2024/01/07 03:40:13;;;;;;;5.65;1.77;;;8.60;99.90;;;;;;7384987;19;20003;-76
2024/01/07 03:42:42;;;;;;;9.73;1.52;;;8.60;99.90;;;;;;7385777;19;20113;-77
2024/01/07 03:45:11;;;;;;;5.88;1.73;;;8.50;99.90;;;;;;7405305;19;20010;-78
2024/01/07 03:47:42;;;;;;;10.45;1.25;;;8.20;99.90;;;;;;7384485;19;20046;-77
2024/01/07 03:50:12;;;;;;;6.85;1.52;;;8.30;99.90;;;;;;7386469;19;20010;-77
2024/01/07 03:52:40;;;;;;;6.55;1.58;;;8.10;99.90;;;;;;7385449;19;20027;-78
2024/01/07 03:55:10;;;;;;;5.50;1.60;;;8.00;99.90;;;;;;7382889;19;19999;-77
2024/01/07 03:57:38;;;;;;;12.00;1.73;;;7.90;99.90;;;;;;7396849;19;20015;-77
2024/01/07 04:00:09;;;;;;;7.05;1.80;;;8.10;99.90;;;;;;7406101;19;20015;-77
2024/01/07 04:02:41;;;;;;;7.78;1.75;;;8.10;99.90;;;;;;7383153;19;20011;-77
2024/01/07 04:05:14;;;;;;;10.43;1.60;;;8.10;99.90;;;;;;7384857;19;20014;-77
2024/01/07 04:07:43;;;;;;;10.60;1.40;;;8.10;99.90;;;;;;7384909;19;20066;-77
2024/01/07 04:10:12;;;;;;;3.83;1.67;;;8.20;99.90;;;;;;7388041;19;20105;-78
2024/01/07 04:12:41;;;;;;;7.00;1.75;;;8.10;99.90;;;;;;7387321;19;20054;-77
2024/01/07 04:15:11;;;;;;;7.28;2.30;;;8.20;99.90;;;;;;7407669;19;20023;-77
2024/01/07 04:17:39;;;;;;;11.52;1.92;;;8.20;99.90;;;;;;7391233;19;20011;-77
2024/01/07 04:20:15;;;;;;;4.15;1.85;;;8.10;99.90;;;;;;7387003;19;20006;-78
2024/01/07 04:22:43;;;;;;;4.50;1.52;;;8.10;99.90;;;;;;7384666;19;20413;-78
2024/01/07 04:25:12;;;;;;;6.32;1.75;;;8.10;99.90;;;;;;7384503;19;20062;-78
2024/01/07 04:27:43;;;;;;;5.88;1.70;;;8.00;99.90;;;;;;7388090;19;20006;-76
2024/01/07 04:30:12;;;;;;;5.05;1.63;;;8.10;99.90;;;;;;7406132;19;20078;-78
2024/01/07 04:32:41;;;;;;;8.50;1.85;;;8.10;99.90;;;;;;7382664;19;20006;-77
2024/01/07 04:35:10;;;;;;;8.10;2.05;;;8.20;99.90;;;;;;7383467;19;20007;-77
2024/01/07 04:37:42;;;;;;;4.95;1.50;;;8.30;99.90;;;;;;7385785;19;20240;-78
2024/01/07 04:40:11;;;;;;;;;;;8.30;99.90;;;;;;7386795;19;20045;-77
2024/01/07 04:42:39;;;;;;;7.10;1.75;;;8.30;99.90;;;;;;7406226;19;19938;-78
2024/01/07 04:45:09;;;;;;;5.22;1.50;;;8.40;99.90;;;;;;7388512;19;20007;-77
2024/01/07 04:47:37;;;;;;;6.43;1.77;;;8.30;99.90;;;;;;7384307;19;20019;-77
2024/01/07 04:50:08;;;;;;;4.80;1.75;;;8.30;99.90;;;;;;7384924;19;20007;-77
2024/01/07 04:52:39;;;;;;;8.93;2.40;;;8.40;99.90;;;;;;7387892;19;20011;-78
2024/01/07 04:55:12;;;;;;;9.52;2.05;;;8.30;99.90;;;;;;7390251;19;20010;-78
2024/01/07 04:57:40;;;;;;;3.63;2.03;;;8.20;99.90;;;;;;7406581;19;20007;-78
2024/01/07 05:00:10;;;;;;;5.28;1.73;;;8.00;99.90;;;;;;7383710;19;20023;-78
2024/01/07 05:02:39;;;;;;;4.70;1.70;;;8.10;99.90;;;;;;7383915;19;20002;-78
2024/01/07 05:05:08;;;;;;;3.10;1.67;;;8.20;99.90;;;;;;7387763;19;20018;-78
2024/01/07 05:07:36;;;;;;;5.60;1.65;;;8.20;99.90;;;;;;7386831;19;20002;-78
2024/01/07 05:10:06;;;;;;;7.97;2.00;;;8.20;99.90;;;;;;7384689;19;20004;-78
2024/01/07 05:12:37;;;;;;;8.75;1.63;;;8.20;99.90;;;;;;7401941;19;20010;-77
2024/01/07 05:15:07;;;;;;;6.80;1.75;;;8.10;99.90;;;;;;7381995;19;20028;-76
2024/01/07 05:17:35;;;;;;;10.30;1.95;;;8.10;99.90;;;;;;7385086;19;20010;-77
2024/01/07 05:20:06;;;;;;;5.05;1.70;;;8.20;99.90;;;;;;7381776;19;20002;-77
2024/01/07 05:22:36;;;;;;;7.28;2.13;;;8.30;99.90;;;;;;7387098;19;20246;-78
2024/01/07 05:25:05;;;;;;;11.18;1.95;;;8.20;99.90;;;;;;7382632;19;20039;-78
2024/01/07 05:27:33;;;;;;;6.93;1.40;;;8.10;99.90;;;;;;7407576;19;20023;-78
2024/01/07 05:30:05;;;;;;;11.23;2.05;;;8.10;99.90;;;;;;7388194;19;20086;-78
2024/01/07 05:32:33;;;;;;;5.38;1.70;;;8.20;99.90;;;;;;7394498;19;20002;-77
2024/01/07 05:35:02;;;;;;;3.33;1.52;;;8.30;99.90;;;;;;7398955;19;20018;-77
2024/01/07 05:37:31;;;;;;;8.85;1.40;;;8.10;99.90;;;;;;7402621;19;20019;-77
2024/01/07 05:40:00;;;;;;;8.30;1.63;;;8.00;99.90;;;;;;7395307;19;20010;-77
2024/01/07 05:42:28;;;;;;;9.32;2.22;;;8.00;99.90;;;;;;7410247;19;20011;-78
2024/01/07 05:44:57;;;;;;;7.47;1.88;;;8.10;99.90;;;;;;7381734;19;20082;-78
2024/01/07 05:47:29;;;;;;;7.40;1.60;;;8.20;99.90;;;;;;7381246;19;20006;-77
2024/01/07 05:49:58;;;;;;;7.82;1.70;;;8.30;99.90;;;;;;7385314;19;20006;-77
2024/01/07 05:52:27;;;;;;;8.82;1.88;;;8.20;99.90;;;;;;7383313;19;20002;-78
2024/01/07 05:54:58;;;;;;;8.07;1.58;;;8.10;99.90;;;;;;7380421;19;20015;-79
2024/01/07 05:57:27;;;;;;;8.13;2.20;;;8.00;99.90;;;;;;7403682;19;20011;-77
2024/01/07 05:59:57;;;;;;;14.32;1.85;;;8.00;99.90;;;;;;7382689;19;20018;-77
2024/01/07 06:02:31;;;;;;;3.67;1.58;;;8.10;99.90;;;;;;7381906;19;20023;-81
2024/01/07 06:05:00;;;;;;;9.00;1.83;;;8.00;99.90;;;;;;7382421;19;20007;-78
2024/01/07 06:07:31;;;;;;;11.00;2.25;;;8.00;99.90;;;;;;7390597;19;20015;-79
2024/01/07 06:10:00;;;;;;;8.85;1.90;;;7.80;99.90;;;;;;7392378;19;20345;-78
2024/01/07 06:12:28;;;;;;;3.05;1.65;;;8.00;99.90;;;;;;7404846;19;20034;-78
2024/01/07 06:14:57;;;;;;;5.47;2.08;;;8.00;99.90;;;;;;7383731;19;20011;-78
2024/01/07 06:17:30;;;;;;;3.78;1.55;;;7.90;99.90;;;;;;7385876;19;20010;-79
2024/01/07 06:19:59;;;;;;;9.10;2.28;;;7.90;99.90;;;;;;7383003;19;20099;-79
2024/01/07 06:22:27;;;;;;;4.70;1.75;;;8.00;99.90;;;;;;7384770;19;20237;-79
2024/01/07 06:24:56;;;;;;;6.70;1.90;;;8.00;99.90;;;;;;7388315;19;20032;-79
2024/01/07 06:27:25;;;;;;;3.67;1.73;;;8.00;99.90;;;;;;7403795;19;20095;-79
2024/01/07 06:29:53;;;;;;;4.63;1.95;;;8.00;99.90;;;;;;7381181;19;20013;-79
2024/01/07 06:32:22;;;;;;;7.00;2.08;;;8.10;99.90;;;;;;7383407;19;20070;-80
2024/01/07 06:34:54;;;;;;;5.85;2.03;;;8.00;99.90;;;;;;7388385;19;20062;-79
2024/01/07 06:37:25;;;;;;;8.50;1.83;;;8.10;99.90;;;;;;7385967;19;20109;-79
2024/01/07 06:39:54;;;;;;;6.70;1.73;;;8.10;99.90;;;;;;7408596;19;20034;-79
2024/01/07 06:42:23;;;;;;;7.18;2.00;;;8.10;99.90;;;;;;7390975;19;20003;-78
2024/01/07 06:44:52;;;;;;;5.40;2.00;;;8.00;99.90;;;;;;7394988;19;20006;-79
2024/01/07 06:47:22;;;;;;;3.70;1.88;;;7.90;99.90;;;;;;7392327;19;20392;-79
2024/01/07 06:49:56;;;;;;;7.85;2.60;;;7.80;99.90;;;;;;7389165;19;20014;-79
2024/01/07 06:52:25;;;;;;;11.63;2.13;;;7.50;99.90;;;;;;7388829;19;20098;-79
2024/01/07 06:54:54;;;;;;;6.47;2.13;;;7.50;99.90;;;;;;7407843;19;20011;-80
2024/01/07 06:57:24;;;;;;;7.57;2.00;;;7.50;99.90;;;;;;7387588;19;20131;-79
2024/01/07 06:59:53;;;;;;;5.28;1.90;;;7.50;99.90;;;;;;7388733;19;20011;-79
2024/01/07 07:02:23;;;;;;;8.68;2.17;;;7.70;99.90;;;;;;7388113;19;20384;-80
2024/01/07 07:04:56;;;;;;;6.38;1.70;;;7.80;99.90;;;;;;7388464;19;20028;-79
2024/01/07 07:07:25;;;;;;;4.75;1.58;;;7.70;99.90;;;;;;7387025;19;20014;-78
2024/01/07 07:09:54;;;;;;;3.88;1.80;;;7.60;99.90;;;;;;7407605;19;20034;-77
2024/01/07 07:12:23;;;;;;;5.20;1.90;;;7.60;99.90;;;;;;7383517;19;20011;-78
2024/01/07 07:14:51;;;;;;;9.98;1.75;;;7.70;99.90;;;;;;7383525;19;20007;-78
2024/01/07 07:17:20;;;;;;;8.95;1.95;;;7.60;99.90;;;;;;7387492;19;20011;-79
2024/01/07 07:19:51;;;;;;;7.63;1.95;;;7.70;99.90;;;;;;7391306;19;20014;-79
2024/01/07 07:22:22;;;;;;;13.18;2.22;;;7.80;99.90;;;;;;7392482;19;20380;-78
2024/01/07 07:24:50;;;;;;;;;;;7.80;99.90;;;;;;7406492;19;19998;-78
2024/01/07 07:27:19;;;;;;;12.50;2.00;;;7.90;99.90;;;;;;7384925;19;19910;-79
2024/01/07 07:29:48;;;;;;;6.55;2.10;;;7.90;99.90;;;;;;7385933;19;20003;-78
2024/01/07 07:32:16;;;;;;;6.78;2.22;;;7.90;99.90;;;;;;7385914;19;20019;-79
2024/01/07 07:34:45;;;;;;;4.18;1.73;;;8.00;99.90;;;;;;7387241;19;20078;-78
2024/01/07 07:37:14;;;;;;;5.10;2.10;;;7.90;99.90;;;;;;7388152;19;20027;-78
2024/01/07 07:39:46;;;;;;;4.60;1.90;;;7.80;99.90;;;;;;7425430;19;20019;-77
2024/01/07 07:42:14;;;;;;;9.15;2.28;;;7.70;99.90;;;;;;7404081;19;20006;-77
2024/01/07 07:44:43;;;;;;;5.35;2.10;;;7.80;99.90;;;;;;7402897;19;20034;-77
2024/01/07 07:47:14;;;;;;;11.02;2.20;;;7.70;99.90;;;;;;7403906;19;20033;-78
2024/01/07 07:49:43;;;;;;;2.60;1.67;;;7.50;99.90;;;;;;7391374;19;20030;-77
2024/01/07 07:52:14;;;;;;;6.93;2.10;;;7.50;99.90;;;;;;7383315;19;20283;-77
2024/01/07 07:54:45;;;;;;;5.65;2.45;;;7.40;99.90;;;;;;7405435;19;20163;-79
2024/01/07 07:57:14;;;;;;;3.65;2.20;;;7.40;99.90;;;;;;7392843;19;20023;-78
2024/01/07 07:59:42;;;;;;;1591.15;188.60;;;7.60;99.90;;;;;;7392104;19;20038;-78
2024/01/07 08:02:11;;;;;;;7.03;2.58;;;7.60;99.90;;;;;;7384293;19;20003;-79
2024/01/07 08:04:41;;;;;;;416.63;20.85;;;7.40;99.90;;;;;;7386600;19;20010;-78
2024/01/07 08:07:09;;;;;;;8.48;2.90;;;7.40;99.90;;;;;;7386131;19;20027;-79
2024/01/07 08:09:38;;;;;;;43.33;5.00;;;7.50;99.90;;;;;;7405556;19;20087;-79
2024/01/07 08:12:11;;;;;;;13.52;3.42;;;7.50;99.90;;;;;;7382125;19;20020;-78
2024/01/07 08:14:41;;;;;;;16.20;3.13;;;7.60;99.90;;;;;;7384005;19;20002;-79
2024/01/07 08:17:10;;;;;;;8.85;3.08;;;7.60;99.90;;;;;;7384307;19;20002;-78
2024/01/07 08:19:41;;;;;;;259.30;14.65;;;7.70;99.90;;;;;;7383792;19;20382;-78
2024/01/07 08:22:12;;;;;;;;;;;7.70;99.90;;;;;;7385593;19;20018;-78
2024/01/07 08:24:41;;;;;;;390.95;22.55;;;7.90;99.90;;;;;;7406543;19;20252;-78
2024/01/07 08:27:12;;;;;;;204.57;13.73;;;7.70;99.90;;;;;;7384638;19;20022;-78
2024/01/07 08:29:41;;;;;;;;;;;7.70;99.90;;;;;;7384373;19;20034;-79
2024/01/07 08:32:09;;;;;;;4.55;2.63;;;7.60;99.90;;;;;;7384148;19;20147;-78
2024/01/07 08:34:38;;;;;;;10.35;2.97;;;7.70;99.90;;;;;;7391135;19;20006;-78
2024/01/07 08:37:07;;;;;;;5.63;2.88;;;7.70;99.90;;;;;;7386861;19;20007;-78
2024/01/07 08:39:33;;;;;;;4.18;2.83;;;7.50;99.90;;;;;;7405266;19;20349;-79
2024/01/07 08:42:03;;;;;;;4.63;3.05;;;7.40;99.90;;;;;;7385678;19;20010;-77
2024/01/07 08:44:35;;;;;;;5.95;3.13;;;7.40;99.90;;;;;;7382976;19;20006;-78
2024/01/07 08:47:03;;;;;;;;;;;7.50;99.90;;;;;;7383871;19;20006;-79
2024/01/07 08:49:33;;;;;;;8.05;2.97;;;7.70;99.90;;;;;;7387269;19;20146;-79
2024/01/07 08:52:02;;;;;;;4.85;2.85;;;7.50;99.90;;;;;;7406615;19;20010;-78
2024/01/07 08:54:31;;;;;;;8.63;3.45;;;7.50;99.90;;;;;;7382241;19;20234;-77
2024/01/07 08:56:59;;;;;;;8.63;3.47;;;7.30;99.90;;;;;;7382281;19;20006;-79
2024/01/07 08:59:28;;;;;;;5.90;3.22;;;7.50;99.90;;;;;;7384695;19;20011;-79
2024/01/07 09:02:00;;;;;;;10.55;4.03;;;7.40;99.90;;;;;;7383329;19;20003;-79
2024/01/07 09:04:30;;;;;;;;;;;7.40;99.90;;;;;;7384826;19;19998;-79
2024/01/07 09:07:00;;;;;;;8.48;3.67;;;7.10;99.90;;;;;;7412121;19;19946;-79
2024/01/07 09:09:28;;;;;;;5.90;3.22;;;7.40;99.90;;;;;;7390392;19;20013;-80
2024/01/07 09:11:59;;;;;;;6.32;2.95;;;7.60;99.90;;;;;;7388381;19;20014;-79
2024/01/07 09:14:36;;;;;;;7.47;3.45;;;7.50;99.90;;;;;;7383439;19;20009;-79
2024/01/07 09:17:09;;;;;;;11.43;4.47;;;7.60;99.90;;;;;;7383776;19;20021;-78
2024/01/07 09:19:38;;;;;;;6.05;3.28;;;7.50;99.90;;;;;;7384338;19;20002;-78
2024/01/07 09:22:11;;;;;;;8.13;3.35;;;7.50;99.90;;;;;;7407623;19;20066;-78
2024/01/07 09:24:46;;;;;;;7.35;3.75;;;7.50;99.90;;;;;;7388809;19;20279;-79
2024/01/07 09:27:15;;;;;;;5.57;3.40;;;7.60;99.90;;;;;;7386542;19;20011;-78
2024/01/07 09:29:47;;;;;;;6.38;3.60;;;7.80;99.90;;;;;;7387591;19;20007;-79
2024/01/07 09:32:19;;;;;;;9.23;3.60;;;7.70;99.90;;;;;;7385752;19;20010;-80
2024/01/07 09:34:48;;;;;;;17.95;3.92;;;7.80;99.90;;;;;;7383941;19;20026;-79
2024/01/07 09:37:16;;;;;;;7.88;3.50;;;7.90;99.90;;;;;;7383464;19;20006;-80
2024/01/07 09:39:47;;;;;;;11.15;4.10;;;7.90;99.90;;;;;;7407758;19;20035;-77
2024/01/07 09:42:16;;;;;;;13.63;4.63;;;7.90;99.90;;;;;;7385894;19;20011;-79
2024/01/07 09:44:46;;;;;;;9.10;4.03;;;8.00;99.90;;;;;;7382888;19;20274;-78
2024/01/07 09:47:20;;;;;;;9.38;4.47;;;8.00;99.90;;;;;;7383240;19;20011;-78
2024/01/07 09:49:49;;;;;;;9.27;3.88;;;7.90;99.90;;;;;;7393350;19;20003;-79
2024/01/07 09:52:18;;;;;;;13.40;4.43;;;7.80;99.90;;;;;;7395823;19;20210;-78
2024/01/07 09:54:50;;;;;;;9.73;4.57;;;8.00;99.90;;;;;;7410033;19;20334;-79
2024/01/07 09:57:19;;;;;;;16.63;4.80;;;7.60;99.90;;;;;;7387018;19;20689;-79
2024/01/07 09:59:49;;;;;;;16.50;6.03;;;7.70;99.90;;;;;;7385847;19;20010;-79
2024/01/07 10:02:21;;;;;;;9.02;5.07;;;7.90;99.90;;;;;;7383132;19;20019;-79
2024/01/07 10:04:50;;;;;;;14.63;6.28;;;7.90;99.90;;;;;;7382388;19;20018;-78
2024/01/07 10:07:19;;;;;;;12.80;5.40;;;7.70;99.90;;;;;;7385513;19;20087;-79
2024/01/07 10:09:50;;;;;;;17.15;5.82;;;7.70;99.90;;;;;;7402359;19;20010;-79
2024/01/07 10:12:20;;;;;;;8.05;5.07;;;7.80;99.90;;;;;;7381872;19;20030;-78
2024/01/07 10:14:49;;;;;;;17.48;4.85;;;7.90;99.90;;;;;;7381931;19;20373;-79
2024/01/07 10:17:27;;;;;;;10.43;5.00;;;7.80;99.90;;;;;;7381094;19;20019;-79
2024/01/07 10:19:56;;;;;;;13.50;5.07;;;7.50;99.90;;;;;;7382335;19;20003;-79
2024/01/07 10:22:25;;;;;;;10.70;5.10;;;7.70;99.90;;;;;;7382994;19;20011;-80
2024/01/07 10:31:56;;;;;;;;;;;;;;;;;;;;;
2024/01/07 10:35:17;;;;;;;9.55;5.75;;;7.50;99.90;;;;;;7344866;19;20006;-83
2024/01/07 11:18:03;;;;;;;13.02;5.88;;;8.00;99.90;;;;;;7444693;19;20007;-82
2024/01/07 11:20:35;;;;;;;9.40;5.68;;;8.10;99.90;;;;;;7448520;19;20007;-82
2024/01/07 11:23:49;;;;;;;10.18;5.65;;;8.10;99.90;;;;;;7447617;19;20018;-85
2024/01/07 11:55:36;;;;;;;18.02;8.82;;;7.70;99.90;;;;;;7340266;19;20143;-80
2024/01/07 12:04:04;;;;;;;20.65;9.68;;;8.00;99.90;;;;;;7445422;19;19987;-80
2024/01/07 12:06:46;;;;;;;17.60;9.48;;;8.20;99.90;;;;;;7423694;19;20026;-81
2024/01/07 12:12:38;;;;;;;22.38;10.48;;;8.00;99.90;;;;;;7409982;19;20416;-80
2024/01/07 12:15:30;;;;;;;;;;;;;;;;;;;;;
2024/01/07 12:18:07;;;;;;;17.65;10.63;;;8.10;99.90;;;;;;7441528;19;20576;-81
2024/01/07 12:23:19;;;;;;;19.30;10.70;;;8.00;99.90;;;;;;7426904;19;20014;-80
2024/01/07 12:25:48;;;;;;;21.33;11.40;;;8.00;99.90;;;;;;7419295;19;20006;-79
2024/01/07 12:28:32;;;;;;;19.80;10.93;;;8.10;99.90;;;;;;7425141;19;20010;-82
2024/01/07 12:31:15;;;;;;;19.90;10.90;;;7.90;99.90;;;;;;7420788;19;20096;-79
2024/01/07 12:33:43;;;;;;;24.38;10.38;;;8.00;99.90;;;;;;7423004;19;20008;-80
2024/01/07 12:39:48;;;;;;;22.77;11.65;;;8.10;99.90;;;;;;7318768;19;2004349;-85
2024/01/07 12:43:10;;;;;;;27.73;12.23;;;8.20;99.90;;;;;;7441894;19;20006;-82
2024/01/07 13:12:42;;;;;;;31.77;14.27;;;8.20;99.90;;;;;;6065387;19;17884148;-79
2024/01/07 13:15:12;;;;;;;31.33;15.30;;;8.40;99.90;;;;;;7417406;19;20010;-77
2024/01/07 13:17:41;;;;;;;34.42;15.32;;;8.40;99.90;;;;;;7438408;19;20017;-78
2024/01/07 13:20:12;;;;;;;32.25;14.65;;;8.30;99.90;;;;;;7417071;19;20051;-77
2024/01/07 13:22:40;;;;;;;35.38;15.48;;;8.40;99.90;;;;;;7417432;19;20011;-79
2024/01/07 13:25:10;;;;;;;29.63;14.75;;;8.40;99.90;;;;;;7421287;19;20010;-79
2024/01/07 13:40:27;;;;;;;30.15;15.43;;;8.10;99.90;;;;;;7430199;19;20010;-81
2024/01/07 13:42:58;;;;;;;33.80;16.20;;;8.00;99.90;;;;;;7419193;19;20003;-80
2024/01/07 13:45:27;;;;;;;26.15;13.95;;;8.00;99.90;;;;;;7419885;19;20011;-81
2024/01/07 13:48:17;;;;;;;31.67;15.50;;;7.90;99.90;;;;;;7446849;19;20243;-82
2024/01/07 14:17:34;;;;;;;27.20;14.55;;;8.20;99.90;;;;;;5075847;19;10582532;-81
2024/01/07 17:53:53;;;;;;;;;;;;;;;;;;;;;
2024/01/07 18:08:04;;;;;;;44.95;20.88;;;7.30;99.90;;;;;;7397944;19;20002;-81
2024/01/07 18:11:39;;;;;;;;;;;;;;;;;;;;;
2024/01/07 18:43:58;;;;;;;;;;;;;;;;;;;;;
2024/01/07 18:50:15;;;;;;;;;;;;;;;;;;;;;
2024/01/07 18:56:03;;;;;;;58.00;25.10;;;7.20;99.90;;;;;;7421818;19;20074;-81
2024/01/07 21:18:01;;;;;;;;;;;;;;;;;;;;;
2024/01/07 21:21:00;;;;;;;;;;;;;;;;;;;;;
2024/01/07 21:24:23;;;;;;;52.00;23.10;;;7.20;99.90;;;;;;7391135;19;20030;-83
2024/01/07 21:31:28;;;;;;;;;;;;;;;;;;;;;
2024/01/07 21:34:09;;;;;;;41.85;21.50;;;7.40;99.90;;;;;;7386511;19;20388;-84
2024/01/07 21:36:45;;;;;;;40.95;19.48;;;7.30;99.90;;;;;;7390876;19;20019;-83
2024/01/07 21:39:24;;;;;;;46.25;20.30;;;7.00;99.90;;;;;;7411607;19;20007;-83
2024/01/07 21:42:02;;;;;;;54.05;17.20;;;6.80;99.90;;;;;;7391659;19;20348;-83
2024/01/07 21:44:31;;;;;;;39.92;19.40;;;6.70;99.90;;;;;;7397563;19;20042;-82
2024/01/07 21:47:04;;;;;;;42.58;20.70;;;6.70;99.90;;;;;;7396132;19;20074;-83
2024/01/07 21:49:37;;;;;;;53.58;21.35;;;6.80;99.90;;;;;;7391279;19;20014;-82
2024/01/07 21:52:09;;;;;;;45.15;21.10;;;6.70;99.90;;;;;;7389930;19;20020;-83
2024/01/07 21:54:37;;;;;;;49.70;21.60;;;6.70;99.90;;;;;;7390552;19;20011;-83
2024/01/07 21:57:07;;;;;;;37.30;18.42;;;6.80;99.90;;;;;;7413377;19;20020;-82
2024/01/07 21:59:36;;;;;;;49.63;19.48;;;6.70;99.90;;;;;;7392558;19;20014;-82
2024/01/07 22:02:07;;;;;;;44.80;20.08;;;6.80;99.90;;;;;;7391162;19;20023;-82
2024/01/07 22:04:38;;;;;;;39.00;17.77;;;6.90;99.90;;;;;;7390134;19;20027;-82
2024/01/07 22:07:14;;;;;;;41.90;17.85;;;6.90;99.90;;;;;;7375424;19;20098;-82
2024/01/07 22:09:47;;;;;;;37.97;18.40;;;6.90;99.90;;;;;;7391123;19;20037;-82
2024/01/07 22:12:17;;;;;;;39.72;19.15;;;6.90;99.90;;;;;;7412867;19;20083;-82
2024/01/07 22:14:55;;;;;;;38.38;18.60;;;7.00;99.90;;;;;;7392550;19;20010;-81
2024/01/07 22:17:26;;;;;;;44.80;19.58;;;7.10;99.90;;;;;;7391021;19;20018;-84
2024/01/07 22:19:58;;;;;;;62.75;17.55;;;7.10;99.90;;;;;;7395057;19;20007;-82
2024/01/07 22:22:51;;;;;;;35.20;16.98;;;7.10;99.90;;;;;;7397432;19;20034;-83
2024/01/07 22:25:25;;;;;;;40.60;17.30;;;7.00;99.90;;;;;;7393142;19;20309;-82
2024/01/07 22:28:17;;;;;;;36.50;17.30;;;7.00;99.90;;;;;;7393846;19;20007;-82
2024/01/07 22:30:47;;;;;;;33.28;16.25;;;7.00;99.90;;;;;;7389319;19;20019;-82
2024/01/07 22:33:20;;;;;;;36.07;16.03;;;6.80;99.90;;;;;;7411629;19;20106;-82
2024/01/07 22:35:52;;;;;;;29.05;13.05;;;6.60;99.90;;;;;;7391286;19;20536;-82
2024/01/07 22:38:29;;;;;;;28.77;13.70;;;6.50;99.90;;;;;;7388078;19;20007;-83
2024/01/07 22:41:15;;;;;;;26.27;12.35;;;6.30;99.90;;;;;;7389139;19;20035;-83
2024/01/07 22:43:47;;;;;;;27.15;12.45;;;6.40;99.90;;;;;;7391858;19;20046;-81
2024/01/07 22:46:33;;;;;;;20.20;11.48;;;6.40;99.90;;;;;;7392135;19;20006;-84
2024/01/07 22:49:22;;;;;;;;;;;;;;;;;;;;;
2024/01/07 22:55:32;;;;;;;22.52;11.45;;;6.40;99.90;;;;;;7388921;19;20018;-83